createdAt,value
2022-12-01T00:00:08.851Z,61.20
2022-12-01T00:02:35.427Z,61.20
2022-12-01T00:05:01.931Z,61.10
2022-12-01T00:07:28.452Z,61.30
2022-12-01T00:09:54.971Z,61.30
2022-12-01T00:12:21.452Z,61.30
2022-12-01T00:14:47.911Z,61.20
2022-12-01T00:17:14.420Z,61.30
2022-12-01T00:19:40.897Z,61.30
2022-12-01T00:22:07.375Z,61.30
2022-12-01T00:24:33.841Z,61.30
2022-12-01T00:27:00.310Z,61.20
2022-12-01T00:29:26.784Z,61.20
2022-12-01T00:31:53.320Z,61.30
2022-12-01T00:34:19.822Z,61.20
2022-12-01T00:36:46.273Z,61.20
2022-12-01T00:39:12.742Z,61.30
2022-12-01T00:41:39.202Z,61.20
2022-12-01T00:44:05.664Z,61.30
2022-12-01T00:46:32.197Z,61.20
2022-12-01T00:48:58.710Z,61.00
2022-12-01T00:51:25.184Z,61.00
2022-12-01T00:53:51.830Z,61.00
2022-12-01T00:56:18.288Z,61.20
2022-12-01T00:58:44.752Z,61.20
2022-12-01T01:01:11.267Z,61.10
2022-12-01T01:03:37.789Z,61.20
2022-12-01T01:06:04.246Z,61.20
2022-12-01T01:08:30.730Z,61.00
2022-12-01T01:10:57.179Z,61.00
2022-12-01T01:13:23.664Z,61.00
2022-12-01T01:15:50.106Z,61.10
2022-12-01T01:18:16.581Z,60.90
2022-12-01T01:20:43.046Z,60.90
2022-12-01T01:23:09.517Z,61.00
2022-12-01T01:25:36.021Z,61.00
2022-12-01T01:28:02.478Z,60.90
2022-12-01T01:30:28.980Z,61.00
2022-12-01T01:32:55.468Z,61.00
2022-12-01T01:35:21.930Z,61.00
2022-12-01T01:37:48.404Z,61.00
2022-12-01T01:40:14.883Z,61.00
2022-12-01T01:42:41.337Z,61.00
2022-12-01T01:45:07.800Z,60.90
2022-12-01T01:47:34.268Z,61.00
2022-12-01T01:50:00.733Z,60.90
2022-12-01T01:52:27.179Z,60.90
2022-12-01T01:54:53.630Z,61.10
2022-12-01T01:57:20.102Z,61.00
2022-12-01T01:59:46.830Z,60.90
2022-12-01T02:02:13.543Z,61.10
2022-12-01T02:04:40.040Z,61.10
2022-12-01T02:07:06.504Z,61.00
2022-12-01T02:09:32.956Z,61.00
2022-12-01T02:11:59.420Z,61.00
2022-12-01T02:14:25.905Z,61.00
2022-12-01T02:16:52.434Z,61.00
2022-12-01T02:19:18.952Z,60.80
2022-12-01T02:21:45.416Z,60.90
2022-12-01T02:24:12.019Z,61.00
2022-12-01T02:26:38.492Z,60.80
2022-12-01T02:29:04.952Z,61.00
2022-12-01T02:31:31.426Z,61.10
2022-12-01T02:33:57.896Z,61.00
2022-12-01T02:36:24.370Z,60.90
2022-12-01T02:38:50.836Z,60.90
2022-12-01T02:41:17.292Z,60.90
2022-12-01T02:43:44.188Z,60.90
2022-12-01T02:46:10.732Z,60.80
2022-12-01T02:48:37.274Z,60.80
2022-12-01T02:51:03.724Z,60.80
2022-12-01T02:53:30.178Z,60.80
2022-12-01T02:55:56.631Z,60.90
2022-12-01T02:58:23.040Z,60.90
2022-12-01T03:00:49.511Z,60.80
2022-12-01T03:03:15.978Z,60.80
2022-12-01T03:05:42.436Z,60.80
2022-12-01T03:08:08.945Z,60.70
2022-12-01T03:10:35.461Z,60.80
2022-12-01T03:13:01.917Z,60.80
2022-12-01T03:15:28.381Z,60.80
2022-12-01T03:17:54.834Z,60.70
2022-12-01T03:20:21.294Z,60.50
2022-12-01T03:22:47.768Z,60.70
2022-12-01T03:25:14.285Z,60.70
2022-12-01T03:27:44.141Z,60.70
2022-12-01T03:30:17.328Z,60.70
2022-12-01T03:32:43.809Z,60.70
2022-12-01T03:35:10.292Z,60.60
2022-12-01T03:37:36.755Z,60.70
2022-12-01T03:40:03.236Z,60.70
2022-12-01T03:42:29.687Z,60.80
2022-12-01T03:44:56.148Z,60.70
2022-12-01T03:47:22.630Z,60.70
2022-12-01T03:49:49.236Z,60.70
2022-12-01T03:52:15.803Z,60.70
2022-12-01T03:54:42.265Z,60.70
2022-12-01T03:57:08.737Z,60.70
2022-12-01T03:59:35.211Z,60.60
2022-12-01T04:02:01.722Z,60.60
2022-12-01T04:04:28.197Z,60.60
2022-12-01T04:06:54.664Z,60.60
2022-12-01T04:09:21.138Z,60.60
2022-12-01T04:11:47.593Z,60.70
2022-12-01T04:14:14.069Z,60.60
2022-12-01T04:16:40.546Z,60.60
2022-12-01T04:19:07.029Z,60.50
2022-12-01T04:21:33.478Z,60.50
2022-12-01T04:23:59.949Z,60.50
2022-12-01T04:26:26.417Z,60.50
2022-12-01T04:28:52.884Z,60.40
2022-12-01T04:31:19.408Z,60.50
2022-12-01T04:33:45.934Z,60.50
2022-12-01T04:36:12.413Z,60.50
2022-12-01T04:38:38.875Z,60.50
2022-12-01T04:41:05.339Z,60.60
2022-12-01T04:43:31.779Z,60.60
2022-12-01T04:45:58.242Z,60.50
2022-12-01T04:48:24.719Z,60.50
2022-12-01T04:50:51.185Z,60.60
2022-12-01T04:53:17.628Z,60.50
2022-12-01T04:55:44.102Z,60.60
2022-12-01T04:58:10.554Z,60.60
2022-12-01T05:00:37.087Z,60.60
2022-12-01T05:03:03.585Z,60.60
2022-12-01T05:05:30.076Z,60.50
2022-12-01T05:07:56.589Z,60.70
2022-12-01T05:10:23.092Z,60.60
2022-12-01T05:12:49.544Z,60.50
2022-12-01T05:15:15.995Z,60.60
2022-12-01T05:17:42.462Z,60.50
2022-12-01T05:20:08.918Z,60.60
2022-12-01T05:23:03.717Z,60.50
2022-12-01T05:25:21.806Z,60.60
2022-12-01T05:27:48.451Z,60.30
2022-12-01T05:30:14.905Z,61.10
2022-12-01T05:32:41.360Z,60.50
2022-12-01T05:35:07.809Z,60.40
2022-12-01T05:37:34.256Z,60.30
2022-12-01T05:40:00.710Z,60.30
2022-12-01T05:42:27.165Z,60.30
2022-12-01T05:44:53.629Z,60.30
2022-12-01T05:47:20.087Z,60.40
2022-12-01T05:49:46.758Z,60.30
2022-12-01T05:52:13.427Z,60.50
2022-12-01T05:54:39.901Z,60.30
2022-12-01T05:57:06.367Z,60.20
2022-12-01T05:59:32.828Z,60.30
2022-12-01T06:01:59.331Z,60.40
2022-12-01T06:04:25.857Z,60.50
2022-12-01T06:06:52.363Z,61.20
2022-12-01T06:09:18.813Z,60.40
2022-12-01T06:11:47.228Z,60.50
2022-12-01T06:14:16.511Z,60.20
2022-12-01T06:16:43.094Z,60.30
2022-12-01T06:19:09.589Z,60.30
2022-12-01T06:21:36.066Z,60.30
2022-12-01T06:24:02.552Z,60.20
2022-12-01T06:26:29.035Z,60.20
2022-12-01T06:28:55.498Z,60.20
2022-12-01T06:31:22.007Z,60.20
2022-12-01T06:33:48.509Z,60.90
2022-12-01T06:36:14.970Z,60.10
2022-12-01T06:38:41.444Z,60.00
2022-12-01T06:41:07.893Z,60.10
2022-12-01T06:43:34.354Z,60.10
2022-12-01T06:46:02.387Z,60.20
2022-12-01T06:48:29.078Z,60.20
2022-12-01T06:50:55.555Z,60.20
2022-12-01T06:53:22.018Z,60.30
2022-12-01T06:55:48.480Z,60.30
2022-12-01T06:58:15.105Z,60.30
2022-12-01T07:00:41.727Z,60.30
2022-12-01T07:03:08.180Z,60.30
2022-12-01T07:05:34.642Z,60.20
2022-12-01T07:08:01.191Z,60.20
2022-12-01T07:10:27.693Z,60.10
2022-12-01T07:12:54.161Z,60.10
2022-12-01T07:15:20.618Z,60.20
2022-12-01T07:17:47.096Z,60.00
2022-12-01T07:20:13.570Z,60.10
2022-12-01T07:22:40.027Z,60.10
2022-12-01T07:25:06.479Z,60.10
2022-12-01T07:27:32.960Z,60.10
2022-12-01T07:29:59.421Z,60.20
2022-12-01T07:32:25.891Z,60.20
2022-12-01T07:34:52.351Z,60.10
2022-12-01T07:37:18.816Z,60.20
2022-12-01T07:39:45.300Z,60.20
2022-12-01T07:42:11.758Z,60.20
2022-12-01T07:44:38.227Z,60.20
2022-12-01T07:47:04.689Z,60.10
2022-12-01T07:49:31.170Z,60.00
2022-12-01T07:51:57.636Z,60.00
2022-12-01T07:54:24.109Z,60.10
2022-12-01T07:56:50.556Z,60.10
2022-12-01T07:59:17.062Z,60.20
2022-12-01T08:01:44.916Z,60.10
2022-12-01T08:04:11.560Z,60.10
2022-12-01T08:06:38.030Z,60.10
2022-12-01T08:09:04.496Z,60.10
2022-12-01T08:11:33.503Z,60.00
2022-12-01T08:13:59.978Z,60.00
2022-12-01T08:16:26.432Z,60.00
2022-12-01T08:18:52.915Z,60.00
2022-12-01T08:21:19.396Z,60.00
2022-12-01T08:23:45.884Z,60.10
2022-12-01T08:26:12.359Z,60.00
2022-12-01T08:28:39.910Z,60.90
2022-12-01T08:31:06.465Z,60.10
2022-12-01T08:33:32.966Z,60.00
2022-12-01T08:35:59.413Z,60.00
2022-12-01T08:38:25.866Z,60.00
2022-12-01T08:40:52.334Z,60.00
2022-12-01T08:43:49.622Z,60.10
2022-12-01T08:46:05.273Z,60.10
2022-12-01T08:48:31.787Z,60.00
2022-12-01T08:50:58.269Z,60.10
2022-12-01T08:53:24.739Z,60.90
2022-12-01T08:55:51.201Z,60.00
2022-12-01T08:58:17.684Z,60.10
2022-12-01T09:00:44.130Z,60.00
2022-12-01T09:03:10.600Z,60.00
2022-12-01T09:05:37.074Z,60.80
2022-12-01T09:08:03.574Z,60.00
2022-12-01T09:10:30.070Z,60.10
2022-12-01T09:12:56.535Z,60.00
2022-12-01T09:15:23.003Z,60.10
2022-12-01T09:17:49.465Z,60.00
2022-12-01T09:20:15.925Z,60.00
2022-12-01T09:22:42.462Z,59.90
2022-12-01T09:25:08.936Z,59.90
2022-12-01T09:27:35.400Z,59.90
2022-12-01T09:30:01.874Z,59.90
2022-12-01T09:32:28.344Z,59.90
2022-12-01T09:34:54.829Z,59.90
2022-12-01T09:37:21.299Z,59.90
2022-12-01T09:39:48.204Z,59.90
2022-12-01T09:42:14.893Z,59.90
2022-12-01T09:44:41.380Z,59.90
2022-12-01T09:47:07.882Z,59.60
2022-12-01T09:49:39.689Z,59.80
2022-12-01T09:52:06.159Z,59.80
2022-12-01T09:54:32.663Z,59.90
2022-12-01T09:56:59.131Z,59.90
2022-12-01T09:59:25.606Z,59.80
2022-12-01T10:01:52.190Z,59.90
2022-12-01T10:04:18.715Z,59.80
2022-12-01T10:06:45.183Z,59.90
2022-12-01T10:09:11.647Z,60.00
2022-12-01T10:11:38.117Z,59.90
2022-12-01T10:14:04.600Z,60.00
2022-12-01T10:16:31.138Z,60.00
2022-12-01T10:18:57.621Z,59.80
2022-12-01T10:21:24.097Z,59.80
2022-12-01T10:23:50.558Z,59.80
2022-12-01T10:26:17.021Z,59.90
2022-12-01T10:28:43.486Z,59.80
2022-12-01T10:31:11.088Z,60.00
2022-12-01T10:33:37.578Z,59.90
2022-12-01T10:36:04.033Z,59.80
2022-12-01T10:38:30.491Z,59.90
2022-12-01T10:40:56.961Z,59.70
2022-12-01T10:43:23.428Z,59.70
2022-12-01T10:45:49.918Z,59.70
2022-12-01T10:48:16.426Z,59.70
2022-12-01T10:50:42.926Z,59.70
2022-12-01T10:53:09.391Z,59.70
2022-12-01T10:55:35.885Z,59.70
2022-12-01T10:58:06.168Z,59.70
2022-12-01T11:00:58.680Z,59.80
2022-12-01T11:03:22.089Z,59.70
2022-12-01T11:05:48.854Z,59.80
2022-12-01T11:08:15.330Z,59.70
2022-12-01T11:10:41.815Z,59.70
2022-12-01T11:13:08.298Z,59.80
2022-12-01T11:15:34.792Z,60.50
2022-12-01T11:18:01.248Z,59.80
2022-12-01T11:20:27.758Z,59.70
2022-12-01T11:22:54.285Z,59.70
2022-12-01T11:25:20.733Z,59.70
2022-12-01T11:27:47.222Z,59.60
2022-12-01T11:30:13.686Z,59.60
2022-12-01T11:32:40.159Z,59.60
2022-12-01T11:35:06.620Z,59.60
2022-12-01T11:37:33.096Z,59.50
2022-12-01T11:39:59.559Z,59.60
2022-12-01T11:42:26.030Z,59.50
2022-12-01T11:44:52.560Z,59.50
2022-12-01T11:47:24.099Z,59.60
2022-12-01T11:49:51.367Z,59.40
2022-12-01T11:52:17.964Z,59.60
2022-12-01T11:54:44.424Z,59.60
2022-12-01T11:57:33.181Z,59.60
2022-12-01T11:59:57.337Z,59.50
2022-12-01T12:02:23.834Z,59.60
2022-12-01T12:04:50.331Z,59.60
2022-12-01T12:07:16.793Z,59.60
2022-12-01T12:09:45.276Z,59.50
2022-12-01T12:12:11.868Z,59.50
2022-12-01T12:14:38.312Z,59.50
2022-12-01T12:17:04.796Z,59.60
2022-12-01T12:19:34.295Z,59.60
2022-12-01T12:22:11.889Z,59.60
2022-12-01T12:24:38.353Z,59.50
2022-12-01T12:27:04.856Z,59.50
2022-12-01T12:29:31.331Z,59.40
2022-12-01T12:31:57.812Z,59.40
2022-12-01T12:34:24.282Z,59.40
2022-12-01T12:36:50.761Z,59.40
2022-12-01T12:39:17.278Z,59.40
2022-12-01T12:41:43.775Z,59.30
2022-12-01T12:44:10.248Z,59.30
2022-12-01T12:46:36.811Z,59.40
2022-12-01T12:49:19.123Z,59.40
2022-12-01T12:51:46.032Z,59.30
2022-12-01T12:54:12.578Z,59.30
2022-12-01T12:56:39.099Z,59.30
2022-12-01T12:59:05.575Z,59.30
2022-12-01T13:01:32.141Z,59.30
2022-12-01T13:03:58.652Z,59.40
2022-12-01T13:06:25.114Z,59.30
2022-12-01T13:08:51.556Z,59.40
2022-12-01T13:11:18.025Z,59.20
2022-12-01T13:13:44.489Z,59.30
2022-12-01T13:16:11.007Z,59.30
2022-12-01T13:18:37.499Z,59.30
2022-12-01T13:21:03.996Z,59.30
2022-12-01T13:23:30.457Z,59.30
2022-12-01T13:25:56.951Z,59.40
2022-12-01T13:28:23.411Z,59.30
2022-12-01T13:30:49.939Z,59.30
2022-12-01T13:33:16.406Z,59.30
2022-12-01T13:35:42.925Z,59.30
2022-12-01T13:38:09.515Z,59.30
2022-12-01T13:40:35.967Z,59.40
2022-12-01T13:43:08.569Z,59.30
2022-12-01T13:45:36.647Z,59.40
2022-12-01T13:48:03.120Z,59.20
2022-12-01T13:50:29.592Z,59.20
2022-12-01T13:52:56.129Z,59.20
2022-12-01T13:55:22.580Z,59.20
2022-12-01T13:57:49.079Z,59.20
2022-12-01T14:00:15.647Z,59.20
2022-12-01T14:02:42.358Z,59.20
2022-12-01T14:05:08.948Z,59.20
2022-12-01T14:07:35.491Z,59.20
2022-12-01T14:10:02.031Z,59.20
2022-12-01T14:12:28.512Z,59.20
2022-12-01T14:14:55.479Z,59.10
2022-12-01T14:17:22.220Z,59.10
2022-12-01T14:19:48.693Z,59.10
2022-12-01T14:22:15.192Z,59.00
2022-12-01T14:24:41.651Z,59.00
2022-12-01T14:27:08.129Z,59.00
2022-12-01T14:29:34.587Z,59.00
2022-12-01T14:32:01.082Z,58.90
2022-12-01T14:34:27.540Z,59.10
2022-12-01T14:36:54.017Z,59.00
2022-12-01T14:39:20.454Z,59.00
2022-12-01T14:41:46.952Z,59.00
2022-12-01T14:44:13.469Z,58.90
2022-12-01T14:46:40.086Z,59.10
2022-12-01T14:49:06.579Z,59.00
2022-12-01T14:51:33.078Z,58.90
2022-12-01T14:53:59.554Z,59.00
2022-12-01T14:56:26.013Z,59.00
2022-12-01T14:58:52.475Z,58.90
2022-12-01T15:01:19.070Z,58.90
2022-12-01T15:03:45.615Z,58.90
2022-12-01T15:06:12.073Z,58.90
2022-12-01T15:08:49.285Z,58.90
2022-12-01T15:11:16.130Z,58.80
2022-12-01T15:13:42.598Z,58.80
2022-12-01T15:16:09.087Z,58.80
2022-12-01T15:18:35.610Z,58.70
2022-12-01T15:21:02.086Z,58.80
2022-12-01T15:23:28.566Z,58.80
2022-12-01T15:25:55.060Z,58.70
2022-12-01T15:28:21.553Z,58.80
2022-12-01T15:30:48.017Z,58.80
2022-12-01T15:33:14.514Z,58.70
2022-12-01T15:35:41.004Z,58.70
2022-12-01T15:38:07.500Z,58.70
2022-12-01T15:43:20.432Z,58.60
2022-12-01T15:45:46.978Z,58.70
2022-12-01T15:48:13.486Z,58.70
2022-12-01T15:50:45.953Z,58.60
2022-12-01T15:53:13.000Z,58.60
2022-12-01T15:55:39.458Z,58.50
2022-12-01T15:58:05.953Z,58.60
2022-12-01T16:00:32.411Z,58.60
2022-12-01T16:02:58.948Z,58.40
2022-12-01T16:05:25.443Z,58.30
2022-12-01T16:08:20.477Z,58.40
2022-12-01T16:10:38.387Z,58.50
2022-12-01T16:13:04.875Z,58.40
2022-12-01T16:15:31.340Z,59.00
2022-12-01T16:17:57.815Z,58.40
2022-12-01T16:20:24.265Z,58.40
2022-12-01T16:22:50.761Z,58.40
2022-12-01T16:25:17.218Z,58.40
2022-12-01T16:27:43.724Z,58.40
2022-12-01T16:30:10.181Z,58.30
2022-12-01T16:32:36.650Z,58.20
2022-12-01T16:35:03.262Z,58.30
2022-12-01T16:37:29.861Z,58.20
2022-12-01T16:39:56.354Z,58.20
2022-12-01T16:42:22.822Z,58.10
2022-12-01T16:44:49.780Z,58.30
2022-12-01T16:47:16.521Z,58.20
2022-12-01T16:49:43.007Z,58.20
2022-12-01T16:52:36.548Z,58.30
2022-12-01T16:54:55.954Z,58.20
2022-12-01T16:57:22.418Z,58.20
2022-12-01T16:59:48.939Z,58.20
2022-12-01T17:02:15.436Z,58.10
2022-12-01T17:04:41.987Z,58.10
2022-12-01T17:07:08.522Z,58.10
2022-12-01T17:09:35.012Z,58.00
2022-12-01T17:12:01.528Z,58.00
2022-12-01T17:14:28.034Z,58.10
2022-12-01T17:16:54.485Z,58.10
2022-12-01T17:19:20.976Z,58.70
2022-12-01T17:21:47.428Z,58.10
2022-12-01T17:24:18.677Z,58.00
2022-12-01T17:26:45.586Z,57.90
2022-12-01T17:29:12.084Z,58.00
2022-12-01T17:31:38.638Z,57.80
2022-12-01T17:34:05.216Z,58.00
2022-12-01T17:36:31.668Z,58.10
2022-12-01T17:38:58.169Z,57.90
2022-12-01T17:41:24.630Z,57.90
2022-12-01T17:43:51.106Z,57.90
2022-12-01T17:46:17.660Z,57.80
2022-12-01T17:48:44.181Z,57.80
2022-12-01T17:51:10.639Z,57.80
2022-12-01T17:53:37.137Z,57.70
2022-12-01T17:56:03.611Z,57.80
2022-12-01T17:58:30.084Z,57.90
2022-12-01T18:00:56.560Z,57.90
2022-12-01T18:03:23.122Z,57.70
2022-12-01T18:05:49.672Z,57.70
2022-12-01T18:08:16.138Z,57.70
2022-12-01T18:10:42.629Z,57.70
2022-12-01T18:13:09.093Z,57.60
2022-12-01T18:15:35.574Z,57.60
2022-12-01T18:18:02.048Z,57.50
2022-12-01T18:20:28.549Z,57.60
2022-12-01T18:22:55.227Z,57.50
2022-12-01T18:25:21.708Z,57.70
2022-12-01T18:27:48.165Z,57.50
2022-12-01T18:30:14.649Z,57.50
2022-12-01T18:32:41.098Z,57.50
2022-12-01T18:35:07.568Z,57.50
2022-12-01T18:37:34.039Z,57.50
2022-12-01T18:40:00.592Z,57.40
2022-12-01T18:42:27.154Z,57.50
2022-12-01T18:44:53.656Z,57.50
2022-12-01T18:47:20.126Z,57.30
2022-12-01T18:49:46.611Z,57.50
2022-12-01T18:52:13.077Z,57.40
2022-12-01T18:54:39.572Z,57.40
2022-12-01T18:57:06.033Z,57.50
2022-12-01T18:59:32.598Z,57.50
2022-12-01T19:01:59.094Z,57.40
2022-12-01T19:04:25.603Z,57.40
2022-12-01T19:06:52.071Z,57.30
2022-12-01T19:09:18.553Z,57.30
2022-12-01T19:11:45.035Z,57.20
2022-12-01T19:14:11.543Z,57.20
2022-12-01T19:16:38.083Z,57.30
2022-12-01T19:19:04.626Z,57.40
2022-12-01T19:21:31.084Z,57.20
2022-12-01T19:23:57.544Z,57.10
2022-12-01T19:26:24.039Z,57.20
2022-12-01T19:28:50.568Z,57.10
2022-12-01T19:31:17.103Z,57.20
2022-12-01T19:33:43.618Z,57.20
2022-12-01T19:36:10.121Z,57.10
2022-12-01T19:38:36.576Z,57.00
2022-12-01T19:41:03.052Z,57.00
2022-12-01T19:43:29.525Z,57.10
2022-12-01T19:45:56.121Z,57.10
2022-12-01T19:48:22.629Z,57.00
2022-12-01T19:50:49.121Z,57.00
2022-12-01T19:53:15.586Z,57.10
2022-12-01T19:55:42.071Z,57.10
2022-12-01T19:58:08.539Z,57.00
2022-12-01T20:00:35.066Z,57.00
2022-12-01T20:03:01.572Z,56.80
2022-12-01T20:05:28.061Z,56.90
2022-12-01T20:07:54.580Z,56.80
2022-12-01T20:10:21.087Z,56.80
2022-12-01T20:12:47.669Z,56.90
2022-12-01T20:15:14.228Z,56.80
2022-12-01T20:17:40.693Z,56.90
2022-12-01T20:20:07.193Z,56.80
2022-12-01T20:22:33.651Z,56.80
2022-12-01T20:25:00.127Z,56.70
2022-12-01T20:27:26.605Z,56.70
2022-12-01T20:29:53.071Z,56.70
2022-12-01T20:32:23.490Z,56.80
2022-12-01T20:34:50.663Z,56.70
2022-12-01T20:37:17.335Z,56.80
2022-12-01T20:39:43.793Z,56.60
2022-12-01T20:42:10.290Z,56.70
2022-12-01T20:44:36.774Z,56.70
2022-12-01T20:47:03.875Z,56.60
2022-12-01T20:49:30.324Z,56.60
2022-12-01T20:51:56.807Z,56.60
2022-12-01T20:54:28.211Z,56.70
2022-12-01T20:56:55.477Z,56.60
2022-12-01T20:59:21.945Z,56.50
2022-12-01T21:01:48.435Z,56.50
2022-12-01T21:04:14.896Z,56.50
2022-12-01T21:06:41.373Z,56.50
2022-12-01T21:09:07.827Z,56.60
2022-12-01T21:11:34.298Z,56.50
2022-12-01T21:14:00.773Z,56.50
2022-12-01T21:16:27.310Z,56.40
2022-12-01T21:18:53.815Z,56.40
2022-12-01T21:21:20.287Z,56.40
2022-12-01T21:23:46.748Z,56.50
2022-12-01T21:26:13.248Z,56.40
2022-12-01T21:28:39.710Z,56.30
2022-12-01T21:31:06.254Z,57.00
2022-12-01T21:33:32.819Z,56.30
2022-12-01T21:35:59.352Z,56.30
2022-12-01T21:38:25.816Z,56.20
2022-12-01T21:40:52.287Z,56.20
2022-12-01T21:43:18.745Z,56.20
2022-12-01T21:45:45.278Z,56.20
2022-12-01T21:48:11.765Z,56.10
2022-12-01T21:50:38.252Z,56.10
2022-12-01T21:53:04.712Z,56.10
2022-12-01T21:55:31.163Z,56.20
2022-12-01T21:57:57.615Z,56.10
2022-12-01T22:00:24.095Z,56.10
2022-12-01T22:02:50.642Z,56.10
2022-12-01T22:05:17.160Z,56.00
2022-12-01T22:07:43.677Z,56.00
2022-12-01T22:10:10.173Z,55.90
2022-12-01T22:12:36.639Z,56.00
2022-12-01T22:15:03.119Z,56.00
2022-12-01T22:17:29.577Z,55.90
2022-12-01T22:19:56.042Z,56.00
2022-12-01T22:22:22.510Z,56.00
2022-12-01T22:24:49.364Z,55.90
2022-12-01T22:27:16.151Z,55.90
2022-12-01T22:29:42.611Z,55.90
2022-12-01T22:32:09.100Z,56.00
2022-12-01T22:34:35.564Z,55.80
2022-12-01T22:37:02.050Z,55.90
2022-12-01T22:39:28.517Z,55.80
2022-12-01T22:41:55.000Z,55.80
2022-12-01T22:44:21.470Z,55.80
2022-12-01T22:46:48.032Z,55.80
2022-12-01T22:49:14.589Z,55.70
2022-12-01T22:51:41.059Z,55.70
2022-12-01T22:54:07.520Z,55.60
2022-12-01T22:56:33.985Z,55.70
2022-12-01T22:59:00.458Z,55.70
2022-12-01T23:01:26.923Z,55.60
2022-12-01T23:03:53.451Z,55.70
2022-12-01T23:06:19.901Z,55.50
2022-12-01T23:08:46.358Z,55.40
2022-12-01T23:11:12.805Z,55.60
2022-12-01T23:13:39.259Z,55.50
2022-12-01T23:16:05.773Z,55.50
2022-12-01T23:18:32.308Z,55.50
2022-12-01T23:20:58.772Z,55.50
2022-12-01T23:23:25.241Z,55.50
2022-12-01T23:25:51.720Z,55.50
2022-12-01T23:28:18.189Z,55.40
2022-12-01T23:30:44.649Z,55.30
2022-12-01T23:33:11.116Z,55.30
2022-12-01T23:35:37.578Z,55.40
2022-12-01T23:38:04.052Z,55.30
2022-12-01T23:40:30.457Z,55.40
2022-12-01T23:42:56.947Z,55.40
2022-12-01T23:45:23.410Z,55.30
2022-12-01T23:47:49.898Z,55.50
2022-12-01T23:50:16.345Z,55.40
2022-12-01T23:52:42.809Z,55.20
2022-12-01T23:55:09.267Z,55.20
2022-12-01T23:57:35.740Z,55.20
